createdAt,value
2018-06-19T00:01:21.433Z,66.50
2018-06-19T00:03:50.011Z,66.40
2018-06-19T00:06:19.388Z,66.30
2018-06-19T00:08:48.044Z,66.60
2018-06-19T00:11:16.733Z,66.70
2018-06-19T00:13:45.304Z,66.60
2018-06-19T00:16:13.919Z,66.90
2018-06-19T00:18:48.757Z,66.80
2018-06-19T00:21:21.174Z,66.80
2018-06-19T00:23:51.670Z,67.00
2018-06-19T00:26:20.279Z,67.00
2018-06-19T00:28:48.879Z,67.00
2018-06-19T00:31:17.386Z,67.10
2018-06-19T00:33:45.914Z,67.40
2018-06-19T00:36:14.502Z,67.60
2018-06-19T00:38:43.097Z,67.20
2018-06-19T00:41:11.649Z,67.90
2018-06-19T00:43:40.223Z,67.60
2018-06-19T00:46:09.301Z,67.20
2018-06-19T00:48:37.805Z,67.80
2018-06-19T00:51:06.247Z,67.80
2018-06-19T00:53:34.724Z,67.80
2018-06-19T00:56:14.289Z,67.80
2018-06-19T00:58:43.037Z,67.80
2018-06-19T01:01:11.718Z,67.70
2018-06-19T01:03:40.209Z,67.80
2018-06-19T01:06:08.708Z,67.80
2018-06-19T01:08:37.381Z,67.70
2018-06-19T01:11:05.830Z,68.20
2018-06-19T01:13:34.324Z,67.60
2018-06-19T01:16:02.765Z,67.60
2018-06-19T01:18:31.285Z,67.70
2018-06-19T01:23:27.859Z,67.70
2018-06-19T01:25:56.317Z,67.60
2018-06-19T01:30:53.635Z,67.90
2018-06-19T01:33:22.149Z,67.70
2018-06-19T01:35:50.632Z,68.10
2018-06-19T01:38:19.226Z,68.10
2018-06-19T01:40:47.665Z,67.90
2018-06-19T01:43:16.174Z,68.20
2018-06-19T01:45:45.912Z,68.20
2018-06-19T01:48:14.428Z,67.80
2018-06-19T01:50:42.950Z,67.60
2018-06-19T01:53:11.518Z,67.80
2018-06-19T01:55:40.020Z,67.90
2018-06-19T01:58:08.475Z,67.80
2018-06-19T02:00:36.961Z,68.10
2018-06-19T02:03:05.434Z,68.30
2018-06-19T02:05:33.934Z,68.30
2018-06-19T02:08:02.389Z,68.20
2018-06-19T02:10:30.917Z,68.20
2018-06-19T02:12:59.355Z,68.30
2018-06-19T02:15:27.862Z,68.40
2018-06-19T02:17:56.370Z,67.60
2018-06-19T02:20:24.919Z,68.40
2018-06-19T02:22:53.514Z,68.40
2018-06-19T02:25:22.018Z,68.40
2018-06-19T02:27:50.455Z,68.40
2018-06-19T02:30:18.934Z,67.90
2018-06-19T02:32:47.378Z,68.60
2018-06-19T02:35:15.902Z,68.40
2018-06-19T02:37:44.355Z,68.50
2018-06-19T02:40:12.879Z,68.60
2018-06-19T02:42:41.377Z,68.50
2018-06-19T02:45:09.861Z,68.30
2018-06-19T02:47:38.356Z,68.90
2018-06-19T02:50:06.886Z,68.60
2018-06-19T02:52:35.399Z,68.50
2018-06-19T02:55:03.900Z,68.70
2018-06-19T02:57:32.387Z,69.00
2018-06-19T03:00:00.897Z,68.70
2018-06-19T03:02:29.379Z,68.70
2018-06-19T03:04:57.847Z,68.70
2018-06-19T03:07:26.452Z,68.50
2018-06-19T03:09:55.303Z,68.50
2018-06-19T03:14:51.967Z,68.20
2018-06-19T03:17:20.470Z,68.10
2018-06-19T03:19:48.935Z,68.10
2018-06-19T03:22:17.431Z,68.10
2018-06-19T03:24:45.935Z,68.40
2018-06-19T03:27:14.446Z,68.50
2018-06-19T03:29:42.906Z,68.70
2018-06-19T03:32:11.472Z,68.80
2018-06-19T03:34:39.928Z,68.70
2018-06-19T03:37:08.510Z,69.00
2018-06-19T03:39:37.043Z,69.00
2018-06-19T03:42:05.622Z,68.80
2018-06-19T03:44:34.092Z,68.90
2018-06-19T03:47:02.550Z,69.10
2018-06-19T03:49:31.080Z,68.80
2018-06-19T03:51:59.553Z,68.50
2018-06-19T03:54:28.105Z,68.40
2018-06-19T03:56:56.562Z,68.60
2018-06-19T03:59:25.082Z,68.00
2018-06-19T04:01:53.549Z,68.20
2018-06-19T04:04:22.033Z,68.30
2018-06-19T04:06:50.495Z,67.80
2018-06-19T04:09:18.993Z,67.00
2018-06-19T04:11:47.453Z,67.00
2018-06-19T04:14:15.962Z,66.70
2018-06-19T04:16:44.468Z,66.40
2018-06-19T04:19:12.952Z,66.20
2018-06-19T04:21:41.427Z,66.20
2018-06-19T04:24:10.018Z,66.00
2018-06-19T04:26:38.486Z,65.50
2018-06-19T04:29:07.740Z,64.80
2018-06-19T04:31:36.313Z,64.70
2018-06-19T04:34:04.833Z,64.80
2018-06-19T04:36:33.299Z,64.90
2018-06-19T04:39:01.914Z,64.80
2018-06-19T04:41:30.596Z,64.90
2018-06-19T04:43:59.098Z,65.10
2018-06-19T04:46:27.619Z,64.50
2018-06-19T04:48:56.077Z,64.20
2018-06-19T04:51:24.600Z,64.40
2018-06-19T04:53:53.083Z,63.90
2018-06-19T04:56:21.587Z,64.90
2018-06-19T04:58:50.044Z,64.80
2018-06-19T05:01:18.954Z,64.70
2018-06-19T05:03:47.419Z,64.70
2018-06-19T05:06:15.908Z,64.70
2018-06-19T05:08:44.411Z,65.30
2018-06-19T05:11:12.937Z,65.20
2018-06-19T05:13:41.472Z,65.20
2018-06-19T05:16:09.982Z,65.40
2018-06-19T05:18:38.427Z,65.50
2018-06-19T05:21:06.912Z,65.60
2018-06-19T05:23:35.352Z,64.60
2018-06-19T05:26:03.885Z,65.50
2018-06-19T05:28:32.316Z,65.70
2018-06-19T05:31:00.823Z,65.60
2018-06-19T05:33:29.339Z,65.70
2018-06-19T05:35:57.850Z,65.80
2018-06-19T05:40:54.598Z,65.90
2018-06-19T05:45:51.294Z,66.00
2018-06-19T05:48:19.794Z,65.80
2018-06-19T05:50:48.302Z,65.80
2018-06-19T05:53:16.810Z,65.70
2018-06-19T05:55:45.332Z,65.90
2018-06-19T05:58:13.925Z,64.90
2018-06-19T06:00:42.432Z,65.30
2018-06-19T06:03:10.962Z,65.00
2018-06-19T06:05:39.517Z,65.10
2018-06-19T06:08:07.960Z,65.00
2018-06-19T06:10:36.563Z,65.10
2018-06-19T06:13:05.082Z,65.10
2018-06-19T06:15:33.616Z,65.20
2018-06-19T06:18:02.086Z,65.30
2018-06-19T06:20:30.570Z,65.40
2018-06-19T06:22:59.112Z,65.40
2018-06-19T06:25:27.598Z,65.10
2018-06-19T06:27:56.142Z,65.40
2018-06-19T06:32:52.864Z,65.10
2018-06-19T06:35:21.326Z,64.70
2018-06-19T06:37:49.864Z,64.90
2018-06-19T06:40:18.407Z,64.50
2018-06-19T06:42:46.904Z,64.60
2018-06-19T06:45:15.454Z,65.00
2018-06-19T06:47:43.951Z,64.90
2018-06-19T06:50:12.570Z,64.80
2018-06-19T06:52:41.002Z,64.70
2018-06-19T06:55:09.571Z,64.60
2018-06-19T06:57:38.067Z,65.00
2018-06-19T07:00:06.716Z,64.50
2018-06-19T07:02:35.236Z,64.70
2018-06-19T07:05:03.829Z,64.60
2018-06-19T07:07:32.297Z,64.40
2018-06-19T07:10:00.908Z,64.10
2018-06-19T07:12:29.411Z,64.10
2018-06-19T07:14:57.905Z,63.80
2018-06-19T07:17:26.360Z,64.00
2018-06-19T07:19:54.829Z,63.10
2018-06-19T07:22:23.348Z,62.50
2018-06-19T07:24:51.859Z,62.30
2018-06-19T07:27:20.374Z,62.20
2018-06-19T07:29:48.840Z,62.70
2018-06-19T07:32:17.355Z,63.10
2018-06-19T07:34:45.838Z,63.50
2018-06-19T07:37:14.334Z,63.60
2018-06-19T07:39:42.849Z,63.90
2018-06-19T07:42:11.511Z,64.50
2018-06-19T07:44:39.986Z,64.90
2018-06-19T07:47:08.469Z,65.20
2018-06-19T07:49:36.931Z,65.70
2018-06-19T07:52:05.486Z,65.70
2018-06-19T07:54:33.959Z,65.30
2018-06-19T07:57:02.471Z,65.20
2018-06-19T07:59:30.940Z,65.00
2018-06-19T08:01:59.479Z,64.20
2018-06-19T08:04:27.922Z,64.60
2018-06-19T08:09:24.573Z,64.10
2018-06-19T08:11:53.081Z,63.80
2018-06-19T08:14:21.637Z,63.30
2018-06-19T08:16:50.117Z,62.90
2018-06-19T08:19:18.619Z,62.50
2018-06-19T08:21:47.322Z,62.50
2018-06-19T08:24:15.843Z,62.60
2018-06-19T08:26:44.310Z,62.70
2018-06-19T08:29:12.847Z,62.80
2018-06-19T08:31:42.950Z,62.80
2018-06-19T08:34:11.621Z,63.40
2018-06-19T08:36:40.259Z,62.90
2018-06-19T08:39:11.263Z,62.90
2018-06-19T08:41:40.290Z,62.90
2018-06-19T08:44:08.788Z,62.40
2018-06-19T08:46:38.461Z,62.60
2018-06-19T08:49:06.957Z,62.20
2018-06-19T08:51:35.421Z,62.10
2018-06-19T08:54:03.974Z,62.10
2018-06-19T08:56:32.899Z,61.80
2018-06-19T08:59:01.458Z,61.40
2018-06-19T09:01:29.921Z,60.90
2018-06-19T09:03:58.528Z,60.50
2018-06-19T09:06:27.012Z,60.00
2018-06-19T09:08:55.541Z,59.40
2018-06-19T09:11:24.127Z,59.80
2018-06-19T09:13:52.622Z,60.00
2018-06-19T09:16:21.135Z,60.10
2018-06-19T09:18:49.664Z,60.00
2018-06-19T09:21:18.147Z,59.80
2018-06-19T09:23:48.255Z,60.00
2018-06-19T09:26:16.779Z,60.20
2018-06-19T09:28:45.211Z,60.70
2018-06-19T09:31:13.715Z,61.10
2018-06-19T09:33:42.214Z,61.50
2018-06-19T09:36:11.131Z,61.60
2018-06-19T09:38:39.662Z,61.60
2018-06-19T09:41:08.475Z,61.60
2018-06-19T09:43:36.953Z,61.70
2018-06-19T09:46:05.545Z,61.80
2018-06-19T09:48:34.010Z,61.40
2018-06-19T09:51:02.535Z,61.40
2018-06-19T09:53:31.381Z,61.10
2018-06-19T09:56:00.511Z,61.00
2018-06-19T09:58:29.088Z,61.00
2018-06-19T10:01:00.445Z,60.90
2018-06-19T10:03:29.380Z,60.70
2018-06-19T10:05:58.729Z,60.50
2018-06-19T10:08:27.227Z,60.10
2018-06-19T10:10:56.377Z,59.80
2018-06-19T10:13:25.127Z,59.20
2018-06-19T10:15:53.659Z,59.20
2018-06-19T10:18:22.238Z,59.50
2018-06-19T10:20:50.741Z,59.70
2018-06-19T10:23:19.617Z,60.00
2018-06-19T10:25:48.095Z,60.00
2018-06-19T10:28:16.638Z,59.50
2018-06-19T10:30:45.580Z,58.70
2018-06-19T10:33:14.174Z,58.90
2018-06-19T10:35:42.798Z,58.10
2018-06-19T10:38:11.380Z,58.70
2018-06-19T10:40:39.890Z,58.60
2018-06-19T10:43:08.396Z,58.40
2018-06-19T10:45:36.922Z,58.40
2018-06-19T10:48:06.750Z,58.60
2018-06-19T10:50:39.165Z,58.60
2018-06-19T10:53:07.888Z,58.80
2018-06-19T10:55:36.463Z,58.60
2018-06-19T10:58:05.042Z,58.20
2018-06-19T11:00:34.802Z,58.70
2018-06-19T11:03:03.396Z,59.30
2018-06-19T11:05:32.289Z,58.30
2018-06-19T11:08:02.016Z,59.30
2018-06-19T11:10:30.934Z,59.40
2018-06-19T11:12:59.765Z,59.40
2018-06-19T11:15:28.408Z,58.90
2018-06-19T11:17:57.231Z,58.70
2018-06-19T11:20:30.722Z,58.80
2018-06-19T11:22:59.196Z,59.30
2018-06-19T11:25:27.724Z,59.80
2018-06-19T11:27:56.229Z,59.90
2018-06-19T11:30:24.765Z,60.00
2018-06-19T11:32:53.331Z,60.00
2018-06-19T11:35:22.051Z,60.20
2018-06-19T11:37:50.876Z,60.20
2018-06-19T11:40:19.438Z,60.00
2018-06-19T11:42:47.922Z,60.00
2018-06-19T11:45:16.471Z,59.80
2018-06-19T11:47:45.462Z,60.00
2018-06-19T11:50:14.066Z,59.80
2018-06-19T11:52:42.507Z,59.70
2018-06-19T11:55:11.275Z,59.50
2018-06-19T11:57:39.791Z,58.90
2018-06-19T12:00:08.283Z,58.50
2018-06-19T12:02:36.781Z,58.60
2018-06-19T12:05:05.286Z,58.70
2018-06-19T12:07:38.910Z,58.60
2018-06-19T12:10:07.754Z,58.20
2018-06-19T12:12:36.490Z,57.70
2018-06-19T12:15:05.327Z,57.20
2018-06-19T12:17:33.862Z,56.50
2018-06-19T12:20:02.442Z,56.60
2018-06-19T12:22:31.067Z,56.00
2018-06-19T12:24:59.951Z,55.80
2018-06-19T12:27:28.496Z,55.70
2018-06-19T12:29:57.065Z,55.90
2018-06-19T12:32:26.730Z,56.20
2018-06-19T12:34:55.966Z,55.80
2018-06-19T12:37:24.497Z,55.70
2018-06-19T12:39:53.004Z,55.60
2018-06-19T12:42:21.487Z,55.70
2018-06-19T12:44:49.992Z,55.60
2018-06-19T12:47:18.518Z,55.20
2018-06-19T12:50:31.302Z,53.80
2018-06-19T12:53:11.918Z,52.40
2018-06-19T12:55:52.075Z,50.10
2018-06-19T12:58:21.554Z,50.50
2018-06-19T13:03:29.546Z,51.30
2018-06-19T13:06:09.673Z,51.00
2018-06-19T13:08:38.168Z,50.20
2018-06-19T13:11:08.628Z,50.60
2018-06-19T13:13:48.208Z,50.80
2018-06-19T13:16:27.827Z,50.30
2018-06-19T13:19:07.440Z,50.60
2018-06-19T13:21:36.012Z,50.30
2018-06-19T13:24:04.571Z,48.90
2018-06-19T13:26:34.219Z,46.60
2018-06-19T13:29:40.136Z,43.50
2018-06-19T13:32:08.627Z,43.30
2018-06-19T13:34:38.602Z,43.20
2018-06-19T13:37:07.443Z,42.90
2018-06-19T13:39:36.810Z,42.40
2018-06-19T13:42:18.066Z,41.20
2018-06-19T13:45:07.477Z,39.30
2018-06-19T13:47:36.054Z,37.90
2018-06-19T13:50:04.685Z,37.20
2018-06-19T13:52:33.191Z,40.20
2018-06-19T13:57:52.082Z,38.80
2018-06-19T14:00:22.394Z,41.10
2018-06-19T14:02:51.106Z,42.10
2018-06-19T14:05:20.418Z,41.60
2018-06-19T14:08:04.548Z,42.60
2018-06-19T14:10:44.232Z,42.30
2018-06-19T14:13:12.789Z,43.60
2018-06-19T14:15:46.024Z,44.00
2018-06-19T14:18:15.535Z,45.40
2018-06-19T14:23:14.071Z,45.90
2018-06-19T14:25:42.654Z,46.10
2018-06-19T14:28:11.402Z,46.70
2018-06-19T14:30:39.966Z,46.00
2018-06-19T14:33:09.561Z,46.00
2018-06-19T14:35:38.026Z,46.60
2018-06-19T14:38:07.768Z,46.50
2018-06-19T14:40:37.876Z,46.50
2018-06-19T14:49:59.797Z,47.40
2018-06-19T14:52:35.587Z,48.20
2018-06-19T14:55:06.115Z,48.00
2018-06-19T14:57:35.489Z,48.20
2018-06-19T15:00:04.617Z,48.60
2018-06-19T15:02:34.741Z,48.70
2018-06-19T15:05:03.332Z,48.30
2018-06-19T15:07:37.566Z,48.20
2018-06-19T15:10:07.370Z,48.50
2018-06-19T15:12:36.603Z,48.60
2018-06-19T15:15:05.176Z,48.80
2018-06-19T15:17:33.669Z,49.40
2018-06-19T15:20:02.178Z,49.20
2018-06-19T15:22:30.667Z,49.70
2018-06-19T15:24:59.196Z,49.70
2018-06-19T15:27:27.705Z,49.80
2018-06-19T15:29:56.291Z,51.00
2018-06-19T15:32:24.804Z,50.30
2018-06-19T15:34:53.412Z,50.40
2018-06-19T15:37:21.915Z,50.80
2018-06-19T15:39:50.836Z,50.90
2018-06-19T15:42:19.305Z,51.00
2018-06-19T15:44:47.770Z,51.50
2018-06-19T15:47:16.352Z,52.00
2018-06-19T15:49:45.661Z,52.00
2018-06-19T15:52:14.190Z,52.00
2018-06-19T15:54:42.759Z,52.00
2018-06-19T15:57:12.656Z,51.80
2018-06-19T15:59:44.872Z,51.80
2018-06-19T16:02:13.467Z,51.70
2018-06-19T16:04:42.146Z,51.70
2018-06-19T16:07:10.712Z,51.60
2018-06-19T16:09:39.191Z,51.60
2018-06-19T16:12:07.777Z,51.90
2018-06-19T16:14:36.380Z,52.40
2018-06-19T16:17:04.954Z,52.80
2018-06-19T16:19:33.467Z,52.60
2018-06-19T16:22:02.017Z,53.00
2018-06-19T16:24:30.553Z,53.30
2018-06-19T16:27:00.372Z,53.00
2018-06-19T16:29:28.934Z,52.90
2018-06-19T16:31:58.388Z,53.20
2018-06-19T16:34:26.953Z,52.90
2018-06-19T16:36:55.861Z,53.20
2018-06-19T16:39:24.385Z,53.00
2018-06-19T16:41:53.062Z,53.40
2018-06-19T16:44:21.555Z,53.40
2018-06-19T16:46:50.123Z,53.10
2018-06-19T16:49:18.626Z,53.00
2018-06-19T16:51:47.146Z,53.20
2018-06-19T16:54:15.774Z,52.60
2018-06-19T16:56:44.406Z,53.00
2018-06-19T16:59:12.981Z,53.20
2018-06-19T17:01:41.478Z,53.80
2018-06-19T17:04:10.057Z,53.60
2018-06-19T17:06:38.641Z,53.90
2018-06-19T17:09:08.153Z,54.20
2018-06-19T17:11:36.700Z,54.40
2018-06-19T17:14:05.321Z,54.60
2018-06-19T17:16:34.412Z,54.60
2018-06-19T17:19:03.032Z,54.40
2018-06-19T17:21:31.519Z,54.40
2018-06-19T17:24:00.272Z,54.30
2018-06-19T17:26:28.805Z,54.70
2018-06-19T17:28:57.402Z,54.80
2018-06-19T17:31:25.914Z,54.50
2018-06-19T17:33:55.422Z,54.80
2018-06-19T17:36:24.054Z,54.80
2018-06-19T17:38:52.608Z,54.90
2018-06-19T17:41:21.155Z,55.20
2018-06-19T17:43:49.654Z,55.40
2018-06-19T17:46:18.148Z,55.80
2018-06-19T17:48:46.690Z,55.90
2018-06-19T17:51:15.168Z,55.80
2018-06-19T17:53:43.675Z,56.40
2018-06-19T17:56:12.245Z,56.70
2018-06-19T17:58:40.748Z,56.50
2018-06-19T18:01:09.286Z,57.10
2018-06-19T18:03:37.897Z,57.60
2018-06-19T18:06:06.655Z,58.50
2018-06-19T18:08:35.202Z,57.60
2018-06-19T18:11:03.903Z,57.60
2018-06-19T18:13:32.408Z,57.80
2018-06-19T18:16:00.981Z,58.20
2018-06-19T18:18:29.789Z,58.10
2018-06-19T18:20:58.383Z,58.50
2018-06-19T18:23:26.893Z,58.70
2018-06-19T18:25:55.367Z,59.00
2018-06-19T18:28:23.878Z,58.80
2018-06-19T18:30:52.522Z,59.40
2018-06-19T18:33:21.033Z,59.90
2018-06-19T18:35:50.016Z,59.70
2018-06-19T18:38:18.583Z,60.00
2018-06-19T18:40:47.434Z,60.30
2018-06-19T18:43:15.926Z,60.50
2018-06-19T18:45:44.443Z,61.20
2018-06-19T18:48:13.156Z,60.80
2018-06-19T18:50:43.437Z,61.10
2018-06-19T18:53:12.225Z,61.40
2018-06-19T18:55:40.798Z,61.60
2018-06-19T18:58:09.613Z,62.00
2018-06-19T19:00:38.672Z,62.30
2018-06-19T19:03:07.351Z,62.30
2018-06-19T19:05:35.845Z,62.30
2018-06-19T19:08:04.559Z,62.20
2018-06-19T19:10:38.283Z,62.10
2018-06-19T19:13:07.055Z,62.00
2018-06-19T19:15:40.845Z,62.60
2018-06-19T19:18:14.622Z,62.90
2018-06-19T19:20:43.150Z,63.10
2018-06-19T19:23:11.748Z,63.20
2018-06-19T19:25:41.218Z,63.50
2018-06-19T19:28:15.086Z,63.60
2018-06-19T19:30:43.639Z,63.80
2018-06-19T19:33:12.213Z,64.00
2018-06-19T19:35:40.700Z,64.30
2018-06-19T19:38:14.444Z,64.30
2018-06-19T19:40:43.066Z,64.30
2018-06-19T19:43:11.631Z,64.50
2018-06-19T19:45:40.124Z,64.60
2018-06-19T19:48:13.950Z,64.90
2018-06-19T19:50:45.726Z,65.00
2018-06-19T19:53:14.323Z,65.00
2018-06-19T19:55:48.268Z,65.20
2018-06-19T19:58:22.066Z,65.50
2018-06-19T20:00:50.586Z,66.50
2018-06-19T20:03:20.057Z,65.80
2018-06-19T20:05:48.578Z,65.90
2018-06-19T20:08:21.579Z,65.80
2018-06-19T20:10:51.794Z,65.80
2018-06-19T20:13:24.166Z,65.80
2018-06-19T20:15:53.449Z,65.80
2018-06-19T20:18:25.219Z,66.00
2018-06-19T20:20:57.823Z,65.80
2018-06-19T20:23:33.210Z,66.20
2018-06-19T20:26:04.239Z,66.30
2018-06-19T20:28:32.789Z,66.50
2018-06-19T20:31:01.263Z,66.60
2018-06-19T20:33:29.825Z,66.80
2018-06-19T20:36:01.459Z,66.90
2018-06-19T20:38:33.674Z,67.10
2018-06-19T20:41:03.474Z,67.20
2018-06-19T20:43:32.010Z,67.30
2018-06-19T20:46:00.565Z,67.40
2018-06-19T20:48:29.088Z,67.40
2018-06-19T20:50:57.658Z,67.60
2018-06-19T20:53:26.826Z,67.70
2018-06-19T20:58:23.778Z,67.70
2018-06-19T21:00:52.294Z,67.30
2018-06-19T21:03:20.786Z,67.80
2018-06-19T21:05:49.362Z,68.00
2018-06-19T21:08:18.270Z,68.10
2018-06-19T21:10:46.788Z,68.20
2018-06-19T21:13:21.537Z,68.10
2018-06-19T21:15:50.091Z,68.50
2018-06-19T21:18:18.600Z,68.20
2018-06-19T21:20:47.122Z,68.60
2018-06-19T21:23:15.591Z,68.70
2018-06-19T21:25:44.139Z,69.00
2018-06-19T21:28:12.834Z,69.10
2018-06-19T21:30:41.381Z,69.50
2018-06-19T21:33:09.910Z,69.70
2018-06-19T21:35:38.478Z,69.60
2018-06-19T21:38:07.006Z,69.60
2018-06-19T21:40:35.541Z,69.60
2018-06-19T21:43:04.050Z,69.60
2018-06-19T21:48:00.744Z,69.40
2018-06-19T21:50:29.201Z,69.40
2018-06-19T21:52:57.729Z,69.80
2018-06-19T21:55:26.200Z,70.50
2018-06-19T21:57:54.704Z,70.60
2018-06-19T22:00:23.209Z,70.90
2018-06-19T22:02:51.786Z,70.80
2018-06-19T22:05:20.261Z,70.90
2018-06-19T22:07:48.778Z,70.60
2018-06-19T22:12:45.429Z,71.00
2018-06-19T22:15:13.931Z,71.10
2018-06-19T22:17:42.387Z,70.50
2018-06-19T22:20:10.879Z,70.20
2018-06-19T22:22:40.001Z,69.70
2018-06-19T22:25:08.486Z,69.70
2018-06-19T22:27:36.957Z,70.20
2018-06-19T22:30:05.465Z,70.30
2018-06-19T22:32:33.912Z,70.40
2018-06-19T22:35:02.407Z,70.30
2018-06-19T22:37:31.050Z,70.20
2018-06-19T22:39:59.534Z,69.70
2018-06-19T22:42:28.038Z,69.50
2018-06-19T22:44:56.533Z,70.20
2018-06-19T22:47:24.982Z,70.30
2018-06-19T22:49:53.483Z,70.40
2018-06-19T22:52:21.917Z,70.80
2018-06-19T22:54:50.395Z,70.50
2018-06-19T22:57:18.837Z,71.00
2018-06-19T22:59:47.311Z,71.50
2018-06-19T23:02:15.763Z,71.10
2018-06-19T23:04:44.258Z,71.30
2018-06-19T23:07:12.718Z,70.90
2018-06-19T23:09:41.178Z,71.30
2018-06-19T23:12:09.722Z,71.30
2018-06-19T23:14:38.171Z,71.50
2018-06-19T23:17:06.751Z,71.30
2018-06-19T23:19:35.311Z,71.50
2018-06-19T23:22:03.823Z,71.70
2018-06-19T23:24:32.269Z,72.10
2018-06-19T23:27:00.771Z,71.90
2018-06-19T23:29:29.229Z,72.10
2018-06-19T23:31:57.725Z,72.00
2018-06-19T23:34:26.187Z,72.20
2018-06-19T23:36:54.674Z,72.40
2018-06-19T23:39:23.130Z,72.70
2018-06-19T23:41:51.671Z,72.50
2018-06-19T23:44:20.345Z,72.90
2018-06-19T23:46:48.861Z,72.90
2018-06-19T23:49:17.318Z,73.60
2018-06-19T23:51:45.810Z,73.50
2018-06-19T23:56:42.535Z,73.50
2018-06-19T23:59:11.025Z,73.50
